TKJ7GU LTAC-LTAU
Flight info
| Callsign | TKJ7GU |
|---|---|
| Flight time | 0h 33m |
| Altitude | 27000 |
| Route | GOBIT DCT MARTI DCT SARIZ |
| Aircraft | A20N/M-SDE2E3FGHIRWXY/LB1 |
Departure
| Time | 2026-04-20 17:32 |
|---|---|
| Airport | Esenboğa International Airport (LTAC) |
Arrival
| Time | 2026-04-20 18:05 |
|---|---|
| Airport | Kayseri Erkilet International Airport (LTAU) |
| Time | Latitude | Longitude | Altitude | Speed | Heading |
|---|---|---|---|---|---|
| 2026-04-20 17:00 | 40.11492 | 32.98951 | 3130 ft | 0 kts | 130° |
| 2026-04-20 17:19 | 40.11498 | 32.98942 | 3128 ft | 2 kts | 130° |
| 2026-04-20 17:20 | 40.11507 | 32.98927 | 3128 ft | 2 kts | 130° |
| 2026-04-20 17:20 | 40.11517 | 32.98913 | 3128 ft | 1 kts | 130° |
| 2026-04-20 17:20 | 40.11523 | 32.98902 | 3127 ft | 0 kts | 130° |
| 2026-04-20 17:20 | 40.11530 | 32.98888 | 3127 ft | 2 kts | 90° |
| 2026-04-20 17:21 | 40.11526 | 32.98871 | 3127 ft | 1 kts | 47° |
| 2026-04-20 17:21 | 40.11521 | 32.98865 | 3127 ft | 1 kts | 36° |
| 2026-04-20 17:21 | 40.11518 | 32.98862 | 3126 ft | 0 kts | 40° |
| 2026-04-20 17:23 | 40.11518 | 32.98863 | 3127 ft | 0 kts | 40° |
| 2026-04-20 17:23 | 40.11525 | 32.98869 | 3127 ft | 2 kts | 40° |
| 2026-04-20 17:23 | 40.11549 | 32.98896 | 3128 ft | 6 kts | 40° |
| 2026-04-20 17:24 | 40.11596 | 32.98947 | 3129 ft | 9 kts | 18° |
| 2026-04-20 17:24 | 40.11653 | 32.98897 | 3128 ft | 9 kts | 317° |
| 2026-04-20 17:24 | 40.11719 | 32.98920 | 3128 ft | 12 kts | 37° |
| 2026-04-20 17:24 | 40.11792 | 32.98992 | 3129 ft | 14 kts | 37° |
| 2026-04-20 17:25 | 40.11877 | 32.99073 | 3131 ft | 15 kts | 36° |
| 2026-04-20 17:25 | 40.11970 | 32.99161 | 3133 ft | 17 kts | 36° |
| 2026-04-20 17:25 | 40.12072 | 32.99256 | 3133 ft | 19 kts | 36° |
| 2026-04-20 17:25 | 40.12185 | 32.99366 | 3134 ft | 20 kts | 36° |
| 2026-04-20 17:26 | 40.12303 | 32.99478 | 3136 ft | 21 kts | 36° |
| 2026-04-20 17:26 | 40.12425 | 32.99594 | 3139 ft | 21 kts | 36° |
| 2026-04-20 17:26 | 40.12551 | 32.99715 | 3139 ft | 23 kts | 36° |
| 2026-04-20 17:26 | 40.12687 | 32.99844 | 3139 ft | 24 kts | 37° |
| 2026-04-20 17:27 | 40.12829 | 32.99980 | 3139 ft | 26 kts | 36° |
| 2026-04-20 17:27 | 40.12974 | 33.00117 | 3143 ft | 24 kts | 36° |
| 2026-04-20 17:27 | 40.13111 | 33.00247 | 3145 ft | 24 kts | 37° |
| 2026-04-20 17:27 | 40.13245 | 33.00377 | 3145 ft | 24 kts | 36° |
| 2026-04-20 17:28 | 40.13382 | 33.00507 | 3145 ft | 24 kts | 37° |
| 2026-04-20 17:28 | 40.13519 | 33.00639 | 3145 ft | 24 kts | 36° |
| 2026-04-20 17:28 | 40.13658 | 33.00769 | 3145 ft | 24 kts | 36° |
| 2026-04-20 17:28 | 40.13790 | 33.00897 | 3144 ft | 23 kts | 36° |
| 2026-04-20 17:29 | 40.13916 | 33.01017 | 3144 ft | 22 kts | 34° |
| 2026-04-20 17:29 | 40.14041 | 33.01071 | 3145 ft | 17 kts | 343° |
| 2026-04-20 17:29 | 40.14083 | 33.01037 | 3144 ft | 1 kts | 313° |
| 2026-04-20 17:29 | 40.14098 | 33.01006 | 3142 ft | 6 kts | 292° |
| 2026-04-20 17:30 | 40.14111 | 33.00938 | 3141 ft | 9 kts | 294° |
| 2026-04-20 17:30 | 40.14152 | 33.00859 | 3139 ft | 11 kts | 306° |
| 2026-04-20 17:30 | 40.14203 | 33.00768 | 3137 ft | 11 kts | 307° |
| 2026-04-20 17:30 | 40.14206 | 33.00682 | 3135 ft | 11 kts | 220° |
| 2026-04-20 17:31 | 40.14111 | 33.00591 | 3135 ft | 39 kts | 216° |
| 2026-04-20 17:31 | 40.13693 | 33.00193 | 3136 ft | 106 kts | 216° |
| 2026-04-20 17:31 | 40.12930 | 32.99462 | 3127 ft | 162 kts | 216° |
| 2026-04-20 17:31 | 40.11966 | 32.98558 | 3537 ft | 174 kts | 215° |
| 2026-04-20 17:32 | 40.10988 | 32.97643 | 4117 ft | 179 kts | 214° |
| 2026-04-20 17:32 | 40.09962 | 32.96688 | 4760 ft | 183 kts | 216° |
| 2026-04-20 17:32 | 40.08913 | 32.95698 | 5271 ft | 192 kts | 216° |
| 2026-04-20 17:32 | 40.07771 | 32.94627 | 5642 ft | 209 kts | 216° |
| 2026-04-20 17:33 | 40.06524 | 32.93456 | 5940 ft | 232 kts | 216° |
| 2026-04-20 17:33 | 40.05151 | 32.92166 | 6416 ft | 249 kts | 216° |
| 2026-04-20 17:33 | 40.03732 | 32.90832 | 7111 ft | 256 kts | 216° |
| 2026-04-20 17:33 | 40.02245 | 32.89512 | 7879 ft | 260 kts | 207° |
| 2026-04-20 17:34 | 40.00483 | 32.88973 | 8614 ft | 265 kts | 177° |
| 2026-04-20 17:34 | 39.98691 | 32.89608 | 9180 ft | 275 kts | 149° |
| 2026-04-20 17:34 | 39.97208 | 32.91256 | 9650 ft | 288 kts | 121° |
| 2026-04-20 17:34 | 39.96524 | 32.93717 | 10357 ft | 291 kts | 98° |
| 2026-04-20 17:35 | 39.96180 | 32.96398 | 10897 ft | 306 kts | 98° |
| 2026-04-20 17:35 | 39.95794 | 32.99191 | 11297 ft | 324 kts | 99° |
| 2026-04-20 17:35 | 39.95364 | 33.02182 | 11668 ft | 342 kts | 99° |
| 2026-04-20 17:35 | 39.94901 | 33.05347 | 12009 ft | 361 kts | 99° |
| 2026-04-20 17:36 | 39.94420 | 33.08605 | 12433 ft | 374 kts | 99° |
| 2026-04-20 17:36 | 39.93924 | 33.11937 | 13101 ft | 380 kts | 99° |
| 2026-04-20 17:36 | 39.93414 | 33.15349 | 13849 ft | 383 kts | 99° |
| 2026-04-20 17:36 | 39.92905 | 33.18758 | 14544 ft | 387 kts | 99° |
| 2026-04-20 17:37 | 39.92387 | 33.22219 | 15224 ft | 391 kts | 99° |
| 2026-04-20 17:37 | 39.91869 | 33.25678 | 15885 ft | 395 kts | 99° |
| 2026-04-20 17:37 | 39.91341 | 33.29198 | 16534 ft | 398 kts | 99° |
| 2026-04-20 17:37 | 39.90799 | 33.32792 | 17174 ft | 402 kts | 99° |
| 2026-04-20 17:38 | 39.90254 | 33.36398 | 17809 ft | 406 kts | 99° |
| 2026-04-20 17:38 | 39.89706 | 33.40006 | 18410 ft | 409 kts | 99° |
| 2026-04-20 17:38 | 39.89160 | 33.43597 | 19002 ft | 413 kts | 99° |
| 2026-04-20 17:38 | 39.88591 | 33.47300 | 19576 ft | 417 kts | 100° |
| 2026-04-20 17:39 | 39.87911 | 33.50970 | 20149 ft | 421 kts | 104° |
| 2026-04-20 17:39 | 39.87061 | 33.54592 | 20711 ft | 424 kts | 107° |
| 2026-04-20 17:39 | 39.86068 | 33.58252 | 21257 ft | 428 kts | 108° |
| 2026-04-20 17:39 | 39.85057 | 33.61904 | 21792 ft | 431 kts | 108° |
| 2026-04-20 17:40 | 39.84040 | 33.65569 | 22310 ft | 435 kts | 109° |
| 2026-04-20 17:40 | 39.83016 | 33.69261 | 22815 ft | 438 kts | 109° |
| 2026-04-20 17:40 | 39.81981 | 33.72993 | 23306 ft | 441 kts | 109° |
| 2026-04-20 17:40 | 39.80937 | 33.76752 | 23788 ft | 444 kts | 109° |
| 2026-04-20 17:41 | 39.79896 | 33.80500 | 24246 ft | 447 kts | 109° |
| 2026-04-20 17:41 | 39.78834 | 33.84321 | 24673 ft | 451 kts | 109° |
| 2026-04-20 17:41 | 39.77770 | 33.88143 | 25112 ft | 453 kts | 109° |
| 2026-04-20 17:41 | 39.76694 | 33.91982 | 25642 ft | 453 kts | 109° |
| 2026-04-20 17:42 | 39.75613 | 33.95816 | 26107 ft | 455 kts | 109° |
| 2026-04-20 17:42 | 39.74513 | 33.99699 | 26509 ft | 457 kts | 109° |
| 2026-04-20 17:42 | 39.73426 | 34.03532 | 26878 ft | 460 kts | 109° |
| 2026-04-20 17:42 | 39.72319 | 34.07431 | 26992 ft | 462 kts | 109° |
| 2026-04-20 17:43 | 39.71204 | 34.11353 | 26997 ft | 462 kts | 109° |
| 2026-04-20 17:43 | 39.70097 | 34.15242 | 26996 ft | 462 kts | 109° |
| 2026-04-20 17:43 | 39.68977 | 34.19167 | 26997 ft | 462 kts | 109° |
| 2026-04-20 17:43 | 39.67869 | 34.23050 | 27001 ft | 463 kts | 109° |
| 2026-04-20 17:44 | 39.66753 | 34.26956 | 27000 ft | 463 kts | 109° |
| 2026-04-20 17:44 | 39.65635 | 34.30860 | 27003 ft | 462 kts | 109° |
| 2026-04-20 17:44 | 39.64510 | 34.34785 | 26998 ft | 463 kts | 109° |
| 2026-04-20 17:44 | 39.63396 | 34.38664 | 26999 ft | 463 kts | 109° |
| 2026-04-20 17:45 | 39.62271 | 34.42577 | 26998 ft | 463 kts | 109° |
| 2026-04-20 17:45 | 39.61148 | 34.46476 | 27003 ft | 463 kts | 109° |
| 2026-04-20 17:45 | 39.60032 | 34.50347 | 27002 ft | 463 kts | 109° |
| 2026-04-20 17:45 | 39.58903 | 34.54253 | 26970 ft | 463 kts | 109° |
| 2026-04-20 17:46 | 39.57776 | 34.58149 | 26708 ft | 462 kts | 109° |
| 2026-04-20 17:46 | 39.56650 | 34.62036 | 26441 ft | 459 kts | 109° |
| 2026-04-20 17:46 | 39.55545 | 34.65844 | 26179 ft | 456 kts | 109° |
| 2026-04-20 17:46 | 39.54429 | 34.69687 | 25913 ft | 453 kts | 109° |
| 2026-04-20 17:47 | 39.53328 | 34.73467 | 25652 ft | 453 kts | 109° |
| 2026-04-20 17:47 | 39.52210 | 34.77303 | 25386 ft | 452 kts | 109° |
| 2026-04-20 17:47 | 39.51112 | 34.81068 | 25123 ft | 452 kts | 109° |
| 2026-04-20 17:47 | 39.50001 | 34.84867 | 24853 ft | 452 kts | 109° |
| 2026-04-20 17:48 | 39.48883 | 34.88685 | 24582 ft | 450 kts | 109° |
| 2026-04-20 17:48 | 39.47778 | 34.92458 | 24227 ft | 448 kts | 109° |
| 2026-04-20 17:48 | 39.46685 | 34.96185 | 23860 ft | 445 kts | 109° |
| 2026-04-20 17:48 | 39.45587 | 34.99918 | 23432 ft | 442 kts | 109° |
| 2026-04-20 17:49 | 39.44504 | 35.03602 | 22938 ft | 439 kts | 109° |
| 2026-04-20 17:49 | 39.43429 | 35.07244 | 22415 ft | 435 kts | 109° |
| 2026-04-20 17:49 | 39.42363 | 35.10855 | 21881 ft | 431 kts | 109° |
| 2026-04-20 17:49 | 39.41256 | 35.14450 | 21320 ft | 429 kts | 114° |
| 2026-04-20 17:50 | 39.39590 | 35.17594 | 20760 ft | 429 kts | 133° |
| 2026-04-20 17:50 | 39.37242 | 35.19935 | 20211 ft | 428 kts | 150° |
| 2026-04-20 17:50 | 39.35231 | 35.21131 | 19820 ft | 425 kts | 156° |
| 2026-04-20 17:50 | 39.32486 | 35.22590 | 19276 ft | 422 kts | 157° |
| 2026-04-20 17:51 | 39.29787 | 35.24007 | 18745 ft | 419 kts | 157° |
| 2026-04-20 17:51 | 39.27108 | 35.25431 | 18214 ft | 416 kts | 156° |
| 2026-04-20 17:51 | 39.24437 | 35.26864 | 17687 ft | 413 kts | 156° |
| 2026-04-20 17:51 | 39.21803 | 35.28286 | 17160 ft | 410 kts | 156° |
| 2026-04-20 17:52 | 39.19169 | 35.29713 | 16625 ft | 407 kts | 156° |
| 2026-04-20 17:52 | 39.16578 | 35.31117 | 16094 ft | 405 kts | 156° |
| 2026-04-20 17:52 | 39.14021 | 35.32504 | 15566 ft | 402 kts | 156° |
| 2026-04-20 17:52 | 39.11425 | 35.33911 | 15022 ft | 400 kts | 156° |
| 2026-04-20 17:53 | 39.08879 | 35.35288 | 14481 ft | 398 kts | 156° |
| 2026-04-20 17:53 | 39.06383 | 35.36689 | 13942 ft | 395 kts | 151° |
| 2026-04-20 17:53 | 39.04239 | 35.38867 | 13389 ft | 388 kts | 127° |
| 2026-04-20 17:53 | 39.02989 | 35.41864 | 12877 ft | 379 kts | 105° |
| 2026-04-20 17:54 | 39.02263 | 35.45065 | 12423 ft | 375 kts | 103° |
| 2026-04-20 17:54 | 39.01540 | 35.48278 | 11924 ft | 372 kts | 104° |
| 2026-04-20 17:54 | 39.00813 | 35.51433 | 11421 ft | 369 kts | 104° |
| 2026-04-20 17:54 | 39.00074 | 35.54564 | 10991 ft | 363 kts | 104° |
| 2026-04-20 17:55 | 38.99352 | 35.57587 | 10639 ft | 351 kts | 104° |
| 2026-04-20 17:55 | 38.98647 | 35.60504 | 10427 ft | 324 kts | 104° |
| 2026-04-20 17:55 | 38.98004 | 35.63149 | 10283 ft | 298 kts | 104° |
| 2026-04-20 17:55 | 38.97405 | 35.65615 | 10181 ft | 285 kts | 105° |
| 2026-04-20 17:56 | 38.96823 | 35.68021 | 10101 ft | 281 kts | 105° |
| 2026-04-20 17:56 | 38.96253 | 35.70380 | 10031 ft | 278 kts | 105° |
| 2026-04-20 17:56 | 38.95678 | 35.72750 | 9775 ft | 279 kts | 105° |
| 2026-04-20 17:56 | 38.95091 | 35.75169 | 9420 ft | 279 kts | 105° |
| 2026-04-20 17:57 | 38.94509 | 35.77557 | 9145 ft | 275 kts | 105° |
| 2026-04-20 17:57 | 38.93944 | 35.79857 | 9120 ft | 261 kts | 105° |
| 2026-04-20 17:57 | 38.93385 | 35.82029 | 9074 ft | 249 kts | 111° |
| 2026-04-20 17:57 | 38.92305 | 35.83742 | 8986 ft | 253 kts | 148° |
| 2026-04-20 17:58 | 38.90655 | 35.84309 | 8808 ft | 249 kts | 186° |
| 2026-04-20 17:58 | 38.89070 | 35.83591 | 8533 ft | 236 kts | 215° |
| 2026-04-20 17:58 | 38.87738 | 35.82433 | 8289 ft | 230 kts | 216° |
| 2026-04-20 17:58 | 38.86415 | 35.81302 | 8102 ft | 223 kts | 214° |
| 2026-04-20 17:59 | 38.85154 | 35.80271 | 7855 ft | 213 kts | 213° |
| 2026-04-20 17:59 | 38.83918 | 35.79286 | 7590 ft | 206 kts | 213° |
| 2026-04-20 17:59 | 38.82822 | 35.78173 | 7350 ft | 197 kts | 234° |
| 2026-04-20 17:59 | 38.82197 | 35.76679 | 7168 ft | 184 kts | 252° |
| 2026-04-20 18:00 | 38.81854 | 35.75172 | 7014 ft | 168 kts | 259° |
| 2026-04-20 18:00 | 38.81611 | 35.73724 | 6872 ft | 166 kts | 261° |
| 2026-04-20 18:00 | 38.81366 | 35.72254 | 6725 ft | 166 kts | 261° |
| 2026-04-20 18:00 | 38.81110 | 35.70812 | 6521 ft | 160 kts | 260° |
| 2026-04-20 18:01 | 38.80862 | 35.69482 | 6284 ft | 150 kts | 259° |
| 2026-04-20 18:01 | 38.80617 | 35.68200 | 6090 ft | 149 kts | 259° |
| 2026-04-20 18:01 | 38.80368 | 35.66905 | 5900 ft | 149 kts | 259° |
| 2026-04-20 18:01 | 38.80118 | 35.65614 | 5705 ft | 149 kts | 258° |
| 2026-04-20 18:02 | 38.79871 | 35.64335 | 5513 ft | 148 kts | 258° |
| 2026-04-20 18:02 | 38.79623 | 35.63049 | 5319 ft | 147 kts | 258° |
| 2026-04-20 18:02 | 38.79376 | 35.61769 | 5120 ft | 146 kts | 258° |
| 2026-04-20 18:02 | 38.79130 | 35.60504 | 4912 ft | 146 kts | 257° |
| 2026-04-20 18:03 | 38.78884 | 35.59243 | 4717 ft | 145 kts | 258° |
| 2026-04-20 18:03 | 38.78655 | 35.57972 | 4539 ft | 145 kts | 259° |
| 2026-04-20 18:03 | 38.78429 | 35.56723 | 4356 ft | 145 kts | 256° |
| 2026-04-20 18:03 | 38.78170 | 35.55451 | 4181 ft | 145 kts | 257° |
| 2026-04-20 18:04 | 38.77930 | 35.54202 | 3994 ft | 144 kts | 257° |
| 2026-04-20 18:04 | 38.77692 | 35.52947 | 3760 ft | 143 kts | 256° |
| 2026-04-20 18:04 | 38.77454 | 35.51704 | 3595 ft | 143 kts | 256° |
| 2026-04-20 18:04 | 38.77219 | 35.50481 | 3467 ft | 139 kts | 256° |
| 2026-04-20 18:05 | 38.76965 | 35.49161 | 3460 ft | 42 kts | 256° |
| 2026-04-20 18:05 | 38.76905 | 35.48833 | 3460 ft | 31 kts | 257° |
| 2026-04-20 18:05 | 38.76852 | 35.48564 | 3457 ft | 30 kts | 256° |
| 2026-04-20 18:06 | 38.76805 | 35.48394 | 3457 ft | 14 kts | 210° |
| 2026-04-20 18:06 | 38.76743 | 35.48392 | 3457 ft | 4 kts | 166° |
| 2026-04-20 18:06 | 38.76712 | 35.48398 | 3457 ft | 5 kts | 188° |
| 2026-04-20 18:06 | 38.76682 | 35.48365 | 3457 ft | 7 kts | 247° |
| 2026-04-20 18:07 | 38.76660 | 35.48302 | 3457 ft | 5 kts | 223° |
| 2026-04-20 18:07 | 38.76632 | 35.48295 | 3457 ft | 2 kts | 169° |
| 2026-04-20 18:07 | 38.76623 | 35.48298 | 3457 ft | 1 kts | 165° |
| 2026-04-20 18:07 | 38.76614 | 35.48301 | 3457 ft | 0 kts | 166° |